createdAt,value
2022-08-04T00:01:04.986Z,0
2022-08-04T00:02:21.286Z,0
2022-08-04T00:03:37.576Z,0
2022-08-04T00:04:52.891Z,0
2022-08-04T00:06:08.195Z,0
2022-08-04T00:07:24.494Z,0
2022-08-04T00:08:40.783Z,0
2022-08-04T00:09:57.072Z,0
2022-08-04T00:11:13.376Z,0
2022-08-04T00:12:29.669Z,0
2022-08-04T00:13:45.967Z,0
2022-08-04T00:15:02.000Z,0
2022-08-04T00:16:18.550Z,0
2022-08-04T00:17:34.842Z,0
2022-08-04T00:18:51.139Z,0
2022-08-04T00:20:07.439Z,0
2022-08-04T00:21:23.715Z,0
2022-08-04T00:22:39.023Z,0
2022-08-04T00:23:55.327Z,0
2022-08-04T00:25:11.621Z,0
2022-08-04T00:26:27.904Z,0
2022-08-04T00:27:44.214Z,0
2022-08-04T00:29:00.497Z,0
2022-08-04T00:30:16.789Z,0
2022-08-04T00:31:32.119Z,0
2022-08-04T00:32:47.427Z,0
2022-08-04T00:34:02.744Z,0
2022-08-04T00:35:18.056Z,0
2022-08-04T00:36:34.339Z,0
2022-08-04T00:37:50.639Z,0
2022-08-04T00:39:06.938Z,0
2022-08-04T00:40:23.228Z,0
2022-08-04T00:41:39.514Z,0
2022-08-04T00:42:55.821Z,0
2022-08-04T00:44:12.095Z,0
2022-08-04T00:45:28.398Z,0
2022-08-04T00:46:44.688Z,0
2022-08-04T00:48:00.996Z,0
2022-08-04T00:49:17.273Z,0
2022-08-04T00:50:33.567Z,0
2022-08-04T00:53:05.180Z,0
2022-08-04T00:54:21.464Z,0
2022-08-04T00:55:37.757Z,0
2022-08-04T00:58:10.356Z,0
2022-08-04T00:59:25.678Z,0
2022-08-04T01:00:40.970Z,0
2022-08-04T01:01:57.271Z,0
2022-08-04T01:03:13.565Z,0
2022-08-04T01:04:29.861Z,0
2022-08-04T01:05:46.163Z,0
2022-08-04T01:07:02.446Z,0
2022-08-04T01:08:18.739Z,0
2022-08-04T01:09:35.036Z,0
2022-08-04T01:10:51.332Z,0
2022-08-04T01:12:07.619Z,0
2022-08-04T01:13:22.945Z,0
2022-08-04T01:14:38.259Z,0
2022-08-04T01:15:54.536Z,0
2022-08-04T01:17:10.839Z,0
2022-08-04T01:18:27.125Z,0
2022-08-04T01:19:43.430Z,0
2022-08-04T01:20:59.723Z,0
2022-08-04T01:22:16.008Z,0
2022-08-04T01:23:32.304Z,0
2022-08-04T01:24:48.593Z,0
2022-08-04T01:26:04.888Z,0
2022-08-04T01:27:21.184Z,0
2022-08-04T01:28:37.491Z,0
2022-08-04T01:29:53.770Z,0
2022-08-04T01:31:09.084Z,0
2022-08-04T01:32:25.376Z,0
2022-08-04T01:33:41.685Z,0
2022-08-04T01:34:57.976Z,0
2022-08-04T01:36:14.259Z,0
2022-08-04T01:37:30.566Z,0
2022-08-04T01:38:46.858Z,0
2022-08-04T01:40:02.159Z,0
2022-08-04T01:41:17.483Z,0
2022-08-04T01:42:32.791Z,0
2022-08-04T01:43:48.112Z,0
2022-08-04T01:45:04.392Z,0
2022-08-04T01:46:20.695Z,0
2022-08-04T01:47:36.983Z,0
2022-08-04T01:48:53.289Z,0
2022-08-04T01:50:09.577Z,0
2022-08-04T01:51:25.860Z,0
2022-08-04T01:52:42.163Z,0
2022-08-04T01:53:58.458Z,0
2022-08-04T01:55:14.749Z,0
2022-08-04T01:56:31.049Z,0
2022-08-04T01:57:47.332Z,0
2022-08-04T01:59:03.641Z,0
2022-08-04T02:00:18.944Z,0
2022-08-04T02:01:35.226Z,0
2022-08-04T02:02:51.521Z,0
2022-08-04T02:04:07.828Z,0
2022-08-04T02:05:24.114Z,0
2022-08-04T02:06:40.419Z,0
2022-08-04T02:07:56.713Z,0
2022-08-04T02:09:12.027Z,0
2022-08-04T02:10:27.331Z,0
2022-08-04T02:11:43.616Z,0
2022-08-04T02:12:58.944Z,0
2022-08-04T02:14:14.251Z,0
2022-08-04T02:15:30.536Z,0
2022-08-04T02:16:46.842Z,0
2022-08-04T02:18:03.125Z,0
2022-08-04T02:19:19.432Z,0
2022-08-04T02:20:35.720Z,0
2022-08-04T02:21:52.025Z,0
2022-08-04T02:23:08.300Z,0
2022-08-04T02:24:24.601Z,0
2022-08-04T02:25:40.903Z,0
2022-08-04T02:26:57.184Z,0
2022-08-04T02:28:13.496Z,0
2022-08-04T02:29:29.791Z,0
2022-08-04T02:30:45.081Z,0
2022-08-04T02:32:01.387Z,0
2022-08-04T02:33:17.689Z,0
2022-08-04T02:34:33.965Z,0
2022-08-04T02:35:50.268Z,0
2022-08-04T02:37:06.552Z,0
2022-08-04T02:38:22.862Z,0
2022-08-04T02:39:38.167Z,0
2022-08-04T02:40:53.479Z,0
2022-08-04T02:42:08.790Z,0
2022-08-04T02:43:24.115Z,0
2022-08-04T02:44:40.396Z,0
2022-08-04T02:45:56.686Z,0
2022-08-04T02:47:12.989Z,0
2022-08-04T02:48:29.280Z,0
2022-08-04T02:49:45.587Z,0
2022-08-04T02:51:01.870Z,0
2022-08-04T02:52:18.172Z,0
2022-08-04T02:53:34.459Z,0
2022-08-04T02:54:50.761Z,0
2022-08-04T02:56:07.048Z,0
2022-08-04T02:57:23.349Z,0
2022-08-04T02:58:39.644Z,0
2022-08-04T02:59:54.951Z,0
2022-08-04T03:01:11.190Z,1
2022-08-04T03:02:27.472Z,0
2022-08-04T03:03:42.801Z,0
2022-08-04T03:04:59.054Z,1
2022-08-04T03:06:15.288Z,1
2022-08-04T03:07:31.525Z,1
2022-08-04T03:08:46.793Z,2
2022-08-04T03:10:02.055Z,2
2022-08-04T03:11:18.299Z,2
2022-08-04T03:12:34.541Z,1
2022-08-04T03:13:50.769Z,1
2022-08-04T03:15:07.021Z,2
2022-08-04T03:16:23.257Z,1
2022-08-04T03:17:39.509Z,2
2022-08-04T03:18:55.731Z,4
2022-08-04T03:20:11.972Z,9
2022-08-04T03:21:28.229Z,7
2022-08-04T03:22:44.460Z,4
2022-08-04T03:24:00.704Z,13
2022-08-04T03:25:16.938Z,11
2022-08-04T03:26:32.199Z,15
2022-08-04T03:27:48.447Z,19
2022-08-04T03:29:04.673Z,22
2022-08-04T03:30:20.907Z,25
2022-08-04T03:31:37.155Z,29
2022-08-04T03:32:53.389Z,34
2022-08-04T03:34:09.649Z,41
2022-08-04T03:35:24.890Z,45
2022-08-04T03:36:40.166Z,54
2022-08-04T03:37:55.413Z,59
2022-08-04T03:39:10.678Z,67
2022-08-04T03:40:25.936Z,75
2022-08-04T03:41:41.196Z,87
2022-08-04T03:42:57.434Z,91
2022-08-04T03:44:13.674Z,105
2022-08-04T03:45:29.915Z,112
2022-08-04T03:46:46.152Z,119
2022-08-04T03:48:02.387Z,132
2022-08-04T03:49:18.635Z,146
2022-08-04T03:50:34.875Z,157
2022-08-04T03:51:51.112Z,172
2022-08-04T03:53:07.348Z,185
2022-08-04T03:54:23.591Z,200
2022-08-04T03:55:39.835Z,216
2022-08-04T03:56:56.072Z,226
2022-08-04T03:58:11.330Z,244
2022-08-04T03:59:27.563Z,259
2022-08-04T04:00:43.807Z,272
2022-08-04T04:02:00.040Z,289
2022-08-04T04:03:16.296Z,305
2022-08-04T04:04:32.534Z,320
2022-08-04T04:05:48.770Z,335
2022-08-04T04:07:04.026Z,349
2022-08-04T04:08:19.279Z,362
2022-08-04T04:10:50.778Z,393
2022-08-04T04:12:06.051Z,410
2022-08-04T04:13:21.297Z,427
2022-08-04T04:14:37.553Z,444
2022-08-04T04:15:53.791Z,460
2022-08-04T04:17:10.023Z,472
2022-08-04T04:18:26.272Z,488
2022-08-04T04:19:42.507Z,506
2022-08-04T04:20:58.754Z,511
2022-08-04T04:22:14.994Z,533
2022-08-04T04:23:31.236Z,561
2022-08-04T04:24:47.461Z,556
2022-08-04T04:26:03.707Z,573
2022-08-04T04:27:19.938Z,607
2022-08-04T04:28:36.178Z,603
2022-08-04T04:29:51.440Z,623
2022-08-04T04:31:07.680Z,640
2022-08-04T04:32:23.920Z,650
2022-08-04T04:33:40.153Z,651
2022-08-04T04:34:56.402Z,706
2022-08-04T04:36:12.642Z,747
2022-08-04T04:37:28.876Z,731
2022-08-04T04:38:44.149Z,723
2022-08-04T04:39:59.409Z,744
2022-08-04T04:41:15.641Z,785
2022-08-04T04:42:31.881Z,817
2022-08-04T04:43:48.116Z,825
2022-08-04T04:45:04.365Z,846
2022-08-04T04:46:20.605Z,860
2022-08-04T04:47:36.837Z,881
2022-08-04T04:48:53.087Z,900
2022-08-04T04:50:09.330Z,917
2022-08-04T04:51:25.566Z,935
2022-08-04T04:52:41.792Z,944
2022-08-04T04:53:58.036Z,956
2022-08-04T04:55:14.283Z,976
2022-08-04T04:56:29.531Z,989
2022-08-04T04:57:45.773Z,1006
2022-08-04T04:59:02.027Z,1028
2022-08-04T05:00:18.268Z,1046
2022-08-04T05:01:34.489Z,1074
2022-08-04T05:02:50.739Z,1104
2022-08-04T05:04:06.986Z,1150
2022-08-04T05:05:22.231Z,1161
2022-08-04T05:06:37.490Z,1193
2022-08-04T05:07:52.760Z,1201
2022-08-04T05:09:08.010Z,1211
2022-08-04T05:10:24.258Z,1223
2022-08-04T05:11:40.489Z,1233
2022-08-04T05:12:56.733Z,1255
2022-08-04T05:14:12.970Z,1266
2022-08-04T05:15:29.205Z,1299
2022-08-04T05:16:45.463Z,1323
2022-08-04T05:18:01.698Z,1341
2022-08-04T05:19:17.940Z,1342
2022-08-04T05:20:34.168Z,1378
2022-08-04T05:21:50.414Z,1393
2022-08-04T05:23:06.653Z,1428
2022-08-04T05:24:22.905Z,1423
2022-08-04T05:25:38.149Z,1452
2022-08-04T05:26:54.393Z,1478
2022-08-04T05:28:10.636Z,1576
2022-08-04T05:29:26.871Z,1473
2022-08-04T05:30:43.106Z,1538
2022-08-04T05:31:59.355Z,1550
2022-08-04T05:33:15.585Z,1602
2022-08-04T05:34:30.861Z,1623
2022-08-04T05:35:46.117Z,1664
2022-08-04T05:37:02.350Z,1671
2022-08-04T05:38:17.610Z,1680
2022-08-04T05:39:32.861Z,1712
2022-08-04T05:40:49.102Z,1728
2022-08-04T05:42:05.348Z,1752
2022-08-04T05:43:21.000Z,1753
2022-08-04T05:44:37.836Z,1790
2022-08-04T05:45:54.079Z,1949
2022-08-04T05:47:10.313Z,1842
2022-08-04T05:48:26.549Z,1691
2022-08-04T05:49:42.799Z,1769
2022-08-04T05:50:59.024Z,1744
2022-08-04T05:52:15.268Z,2163
2022-08-04T05:53:31.514Z,1873
2022-08-04T05:54:47.753Z,1643
2022-08-04T05:57:19.237Z,1807
2022-08-04T05:58:35.484Z,1724
2022-08-04T05:59:51.733Z,1786
2022-08-04T06:01:07.968Z,1621
2022-08-04T06:02:24.208Z,1937
2022-08-04T06:03:40.451Z,2097
2022-08-04T06:04:56.679Z,1946
2022-08-04T06:06:11.947Z,1850
2022-08-04T06:07:27.207Z,2000
2022-08-04T06:08:43.455Z,2154
2022-08-04T06:09:59.679Z,2086
2022-08-04T06:11:15.924Z,2062
2022-08-04T06:12:32.163Z,2048
2022-08-04T06:13:48.407Z,2277
2022-08-04T06:15:04.640Z,2223
2022-08-04T06:16:20.884Z,2092
2022-08-04T06:17:37.125Z,2112
2022-08-04T06:18:53.368Z,2137
2022-08-04T06:20:09.611Z,1977
2022-08-04T06:21:25.838Z,2534
2022-08-04T06:22:42.091Z,2072
2022-08-04T06:23:57.339Z,2421
2022-08-04T06:25:13.585Z,2397
2022-08-04T06:27:46.062Z,2560
2022-08-04T06:29:02.307Z,2022
2022-08-04T06:30:18.545Z,2151
2022-08-04T06:31:34.790Z,2570
2022-08-04T06:32:51.014Z,2311
2022-08-04T06:34:06.293Z,2610
2022-08-04T06:35:21.534Z,2412
2022-08-04T06:36:36.790Z,2763
2022-08-04T06:37:52.064Z,2558
2022-08-04T06:39:08.295Z,2538
2022-08-04T06:40:24.546Z,2773
2022-08-04T06:42:57.012Z,2920
2022-08-04T06:44:13.259Z,2848
2022-08-04T06:45:29.491Z,2979
2022-08-04T06:46:45.744Z,2977
2022-08-04T06:48:01.968Z,2880
2022-08-04T06:49:18.216Z,2978
2022-08-04T06:50:34.463Z,3245
2022-08-04T06:51:50.705Z,3329
2022-08-04T06:53:06.937Z,3491
2022-08-04T06:54:22.195Z,2844
2022-08-04T06:55:38.422Z,3307
2022-08-04T06:56:54.662Z,3512
2022-08-04T06:58:10.916Z,3631
2022-08-04T06:59:27.158Z,3127
2022-08-04T07:00:43.390Z,3075
2022-08-04T07:01:59.634Z,3126
2022-08-04T07:03:15.864Z,2849
2022-08-04T07:04:31.130Z,3081
2022-08-04T07:05:46.401Z,2775
2022-08-04T07:07:02.626Z,2914
2022-08-04T07:08:18.867Z,2961
2022-08-04T07:09:35.114Z,2969
2022-08-04T07:10:51.347Z,3296
2022-08-04T07:12:07.592Z,3372
2022-08-04T07:13:23.819Z,3413
2022-08-04T07:14:40.071Z,3549
2022-08-04T07:15:56.312Z,3570
2022-08-04T07:17:12.547Z,3176
2022-08-04T07:18:27.818Z,3243
2022-08-04T07:19:44.043Z,3251
2022-08-04T07:21:00.290Z,3826
2022-08-04T07:22:16.526Z,3837
2022-08-04T07:23:32.763Z,3829
2022-08-04T07:24:49.017Z,3884
2022-08-04T07:26:05.260Z,3561
2022-08-04T07:27:21.501Z,3713
2022-08-04T07:28:37.728Z,3838
2022-08-04T07:29:53.970Z,3715
2022-08-04T07:31:09.231Z,3827
2022-08-04T07:32:24.498Z,3991
2022-08-04T07:33:40.738Z,3625
2022-08-04T07:34:56.962Z,3963
2022-08-04T07:36:13.207Z,3902
2022-08-04T07:37:29.459Z,4122
2022-08-04T07:38:45.683Z,4244
2022-08-04T07:40:01.920Z,4227
2022-08-04T07:41:18.181Z,4239
2022-08-04T07:42:34.413Z,4229
2022-08-04T07:43:50.650Z,4416
2022-08-04T07:45:06.894Z,4429
2022-08-04T07:46:23.138Z,3734
2022-08-04T07:47:39.371Z,4318
2022-08-04T07:48:54.626Z,4473
2022-08-04T07:50:10.867Z,4777
2022-08-04T07:51:27.100Z,4379
2022-08-04T07:52:43.352Z,4503
2022-08-04T07:53:59.584Z,4837
2022-08-04T07:55:15.838Z,4893
2022-08-04T07:56:32.070Z,4814
2022-08-04T07:57:48.310Z,4862
2022-08-04T07:59:04.549Z,5046
2022-08-04T08:00:20.797Z,4971
2022-08-04T08:01:37.020Z,5084
2022-08-04T08:02:53.275Z,5176
2022-08-04T08:04:09.513Z,5021
2022-08-04T08:05:24.762Z,5033
2022-08-04T08:06:41.002Z,5236
2022-08-04T08:07:57.252Z,5184
2022-08-04T08:09:13.488Z,5023
2022-08-04T08:10:29.734Z,4825
2022-08-04T08:11:45.964Z,5481
2022-08-04T08:13:02.209Z,4847
2022-08-04T08:14:18.457Z,5066
2022-08-04T08:15:34.683Z,5104
2022-08-04T08:16:50.923Z,5304
2022-08-04T08:18:07.161Z,5317
2022-08-04T08:19:23.415Z,5453
2022-08-04T08:20:39.649Z,5904
2022-08-04T08:21:54.903Z,5250
2022-08-04T08:23:11.142Z,5333
2022-08-04T08:24:27.395Z,5827
2022-08-04T08:25:43.634Z,5532
2022-08-04T08:26:59.858Z,5879
2022-08-04T08:28:16.096Z,5928
2022-08-04T08:29:32.343Z,6046
2022-08-04T08:30:48.590Z,6100
2022-08-04T08:32:04.825Z,6560
2022-08-04T08:33:21.065Z,5266
2022-08-04T08:34:37.312Z,6223
2022-08-04T08:35:53.539Z,5917
2022-08-04T08:37:09.794Z,6067
2022-08-04T08:38:25.042Z,6089
2022-08-04T08:39:41.289Z,5995
2022-08-04T08:40:57.530Z,6038
2022-08-04T08:42:13.762Z,5645
2022-08-04T08:43:30.013Z,5918
2022-08-04T08:44:46.246Z,5658
2022-08-04T08:46:02.496Z,5443
2022-08-04T08:47:18.720Z,5990
2022-08-04T08:48:34.974Z,4778
2022-08-04T08:49:51.198Z,5494
2022-08-04T08:51:07.449Z,5570
2022-08-04T08:52:23.679Z,5874
2022-08-04T08:53:39.918Z,5972
2022-08-04T08:54:55.185Z,5643
2022-08-04T08:56:11.415Z,5736
2022-08-04T08:57:27.662Z,5644
2022-08-04T08:58:43.913Z,5833
2022-08-04T09:00:00.140Z,5764
2022-08-04T09:01:16.390Z,5511
2022-08-04T09:02:32.618Z,5800
2022-08-04T09:03:48.864Z,5900
2022-08-04T09:05:05.116Z,6012
2022-08-04T09:06:21.345Z,5942
2022-08-04T09:07:37.599Z,6037
2022-08-04T09:08:53.821Z,5553
2022-08-04T09:10:10.062Z,6449
2022-08-04T09:11:25.336Z,5312
2022-08-04T09:12:41.567Z,5979
2022-08-04T09:13:57.800Z,6268
2022-08-04T09:15:14.037Z,6027
2022-08-04T09:16:30.294Z,6057
2022-08-04T09:17:46.524Z,6176
2022-08-04T09:19:02.763Z,6363
2022-08-04T09:20:19.015Z,6300
2022-08-04T09:21:35.255Z,6253
2022-08-04T09:22:51.497Z,6410
2022-08-04T09:24:07.731Z,5971
2022-08-04T09:25:23.964Z,6147
2022-08-04T09:26:40.220Z,6156
2022-08-04T09:27:55.473Z,6217
2022-08-04T09:29:11.706Z,6041
2022-08-04T09:30:27.949Z,5770
2022-08-04T09:31:44.188Z,6195
2022-08-04T09:33:00.430Z,6451
2022-08-04T09:34:16.666Z,5794
2022-08-04T09:35:32.918Z,6452
2022-08-04T09:36:49.146Z,6178
2022-08-04T09:38:05.383Z,6093
2022-08-04T09:39:21.626Z,6425
2022-08-04T09:40:37.881Z,6185
2022-08-04T09:41:54.122Z,6299
2022-08-04T09:43:10.347Z,5911
2022-08-04T09:44:25.606Z,6318
2022-08-04T09:45:41.845Z,5945
2022-08-04T09:46:58.080Z,5608
2022-08-04T09:48:14.326Z,5758
2022-08-04T09:49:30.582Z,6020
2022-08-04T09:50:46.822Z,6009
2022-08-04T09:52:03.056Z,6252
2022-08-04T09:53:19.296Z,6019
2022-08-04T09:55:51.784Z,6043
2022-08-04T09:57:08.011Z,5548
2022-08-04T09:58:24.262Z,5723
2022-08-04T09:59:40.504Z,5655
2022-08-04T10:00:55.758Z,5513
2022-08-04T10:02:11.992Z,5202
2022-08-04T10:03:28.226Z,5427
2022-08-04T10:04:44.464Z,5509
2022-08-04T10:06:00.710Z,5905
2022-08-04T10:07:16.949Z,5997
2022-08-04T10:08:33.200Z,4953
2022-08-04T10:09:49.431Z,5215
2022-08-04T10:11:05.673Z,5401
2022-08-04T10:12:21.917Z,5735
2022-08-04T10:13:38.164Z,5303
2022-08-04T10:14:54.403Z,5339
2022-08-04T10:16:10.647Z,5197
2022-08-04T10:17:25.891Z,5216
2022-08-04T10:18:42.128Z,5470
2022-08-04T10:19:58.368Z,5666
2022-08-04T10:21:14.617Z,5575
2022-08-04T10:22:30.864Z,5187
2022-08-04T10:23:47.000Z,4701
2022-08-04T10:25:03.339Z,5293
2022-08-04T10:26:19.581Z,5457
2022-08-04T10:27:35.808Z,5022
2022-08-04T10:28:52.058Z,3752
2022-08-04T10:30:08.302Z,4952
2022-08-04T10:31:24.531Z,5123
2022-08-04T10:32:40.779Z,4319
2022-08-04T10:33:56.039Z,4953
2022-08-04T10:35:12.280Z,4859
2022-08-04T10:36:28.510Z,4935
2022-08-04T10:37:44.768Z,4974
2022-08-04T10:39:00.994Z,4734
2022-08-04T10:40:17.233Z,4746
2022-08-04T10:41:33.472Z,5236
2022-08-04T10:42:49.725Z,4952
2022-08-04T10:44:05.971Z,4459
2022-08-04T10:45:22.213Z,4963
2022-08-04T10:46:38.440Z,5351
2022-08-04T10:47:54.679Z,5155
2022-08-04T10:49:10.925Z,4773
2022-08-04T10:50:26.182Z,4323
2022-08-04T10:51:42.430Z,5163
2022-08-04T10:52:58.661Z,4617
2022-08-04T10:54:14.902Z,4953
2022-08-04T10:55:31.139Z,4144
2022-08-04T10:56:47.394Z,5272
2022-08-04T10:58:03.621Z,4993
2022-08-04T10:59:19.872Z,5454
2022-08-04T11:00:36.102Z,5142
2022-08-04T11:01:52.342Z,5668
2022-08-04T11:03:08.595Z,5433
2022-08-04T11:04:24.827Z,5527
2022-08-04T11:05:41.063Z,4860
2022-08-04T11:06:56.331Z,5457
2022-08-04T11:08:12.571Z,5278
2022-08-04T11:09:28.814Z,4643
2022-08-04T11:10:45.037Z,4533
2022-08-04T11:12:01.291Z,5098
2022-08-04T11:13:17.520Z,4654
2022-08-04T11:14:33.776Z,5043
2022-08-04T11:15:50.015Z,5028
2022-08-04T11:17:06.242Z,4672
2022-08-04T11:18:22.492Z,4799
2022-08-04T11:19:38.734Z,5010
2022-08-04T11:20:54.965Z,4742
2022-08-04T11:22:11.202Z,5576
2022-08-04T11:23:26.457Z,4788
2022-08-04T11:24:42.713Z,4682
2022-08-04T11:25:58.957Z,4646
2022-08-04T11:27:15.181Z,4763
2022-08-04T11:28:31.433Z,4472
2022-08-04T11:29:47.674Z,4443
2022-08-04T11:31:03.903Z,4772
2022-08-04T11:32:20.158Z,4674
2022-08-04T11:33:35.422Z,4465
2022-08-04T11:34:51.657Z,4578
2022-08-04T11:36:07.892Z,4900
2022-08-04T11:37:24.128Z,4672
2022-08-04T11:38:40.373Z,4294
2022-08-04T11:39:56.609Z,4267
2022-08-04T11:41:12.849Z,4156
2022-08-04T11:42:29.088Z,4293
2022-08-04T11:43:45.346Z,4095
2022-08-04T11:45:01.574Z,4347
2022-08-04T11:46:17.822Z,4366
2022-08-04T11:47:34.064Z,4120
2022-08-04T11:48:50.289Z,4545
2022-08-04T11:50:05.564Z,3943
2022-08-04T11:51:21.798Z,3886
2022-08-04T11:52:38.034Z,3678
2022-08-04T11:53:54.272Z,4248
2022-08-04T11:55:10.515Z,4356
2022-08-04T11:56:26.751Z,4472
2022-08-04T11:57:43.002Z,4542
2022-08-04T11:58:59.229Z,4277
2022-08-04T12:00:15.469Z,3969
2022-08-04T12:01:31.714Z,4126
2022-08-04T12:02:47.960Z,4197
2022-08-04T12:04:04.205Z,4258
2022-08-04T12:05:20.445Z,4146
2022-08-04T12:06:36.675Z,3927
2022-08-04T12:07:51.941Z,3619
2022-08-04T12:09:08.182Z,3787
2022-08-04T12:10:24.424Z,3886
2022-08-04T12:11:40.653Z,3953
2022-08-04T12:12:56.910Z,4449
2022-08-04T12:14:13.141Z,3337
2022-08-04T12:15:29.387Z,3915
2022-08-04T12:16:45.612Z,3719
2022-08-04T12:18:01.855Z,3981
2022-08-04T12:19:18.099Z,3766
2022-08-04T12:20:34.336Z,3867
2022-08-04T12:21:50.590Z,3703
2022-08-04T12:23:06.825Z,3977
2022-08-04T12:24:22.071Z,3867
2022-08-04T12:25:38.324Z,3821
2022-08-04T12:26:54.562Z,3731
2022-08-04T12:28:10.812Z,3809
2022-08-04T12:29:27.036Z,3834
2022-08-04T12:30:43.287Z,3883
2022-08-04T12:33:15.772Z,3716
2022-08-04T12:34:31.993Z,3715
2022-08-04T12:35:48.236Z,3736
2022-08-04T12:37:04.480Z,3937
2022-08-04T12:38:20.729Z,3466
2022-08-04T12:39:36.959Z,3667
2022-08-04T12:40:52.226Z,3234
2022-08-04T12:42:08.457Z,3608
2022-08-04T12:43:24.711Z,3568
2022-08-04T12:44:40.953Z,3533
2022-08-04T12:45:57.184Z,3582
2022-08-04T12:47:13.416Z,3497
2022-08-04T12:48:29.674Z,3575
2022-08-04T12:49:45.897Z,3740
2022-08-04T12:51:02.144Z,3705
2022-08-04T12:52:18.377Z,3708
2022-08-04T12:53:34.632Z,3757
2022-08-04T12:54:50.875Z,3648
2022-08-04T12:56:07.115Z,3742
2022-08-04T12:57:22.361Z,4300
2022-08-04T12:58:38.607Z,2704
2022-08-04T12:59:54.851Z,4379
2022-08-04T13:01:11.097Z,3000
2022-08-04T13:02:27.324Z,3729
2022-08-04T13:03:43.572Z,3883
2022-08-04T13:04:59.803Z,3780
2022-08-04T13:06:16.055Z,3720
2022-08-04T13:07:32.298Z,3827
2022-08-04T13:08:48.524Z,3603
2022-08-04T13:10:04.768Z,3349
2022-08-04T13:11:21.019Z,3233
2022-08-04T13:12:37.254Z,3205
2022-08-04T13:13:52.510Z,3129
2022-08-04T13:15:08.757Z,3290
2022-08-04T13:16:24.983Z,2940
2022-08-04T13:17:41.235Z,3179
2022-08-04T13:20:13.720Z,3264
2022-08-04T13:21:29.956Z,3256
2022-08-04T13:22:46.197Z,3199
2022-08-04T13:24:02.422Z,3263
2022-08-04T13:25:18.674Z,3211
2022-08-04T13:26:34.903Z,3226
2022-08-04T13:27:51.145Z,3157
2022-08-04T13:29:07.392Z,3114
2022-08-04T13:30:22.647Z,3112
2022-08-04T13:31:38.901Z,3017
2022-08-04T13:32:55.127Z,3132
2022-08-04T13:34:11.377Z,3141
2022-08-04T13:35:27.616Z,3131
2022-08-04T13:36:43.852Z,3622
2022-08-04T13:38:00.085Z,2973
2022-08-04T13:39:16.333Z,3301
2022-08-04T13:40:32.572Z,3946
2022-08-04T13:41:48.821Z,3584
2022-08-04T13:43:05.062Z,3378
2022-08-04T13:44:21.302Z,3194
2022-08-04T13:45:37.536Z,3102
2022-08-04T13:46:52.799Z,2972
2022-08-04T13:48:09.040Z,2431
2022-08-04T13:49:25.285Z,3307
2022-08-04T13:50:41.520Z,2697
2022-08-04T13:51:57.750Z,2679
2022-08-04T13:53:14.006Z,2923
2022-08-04T13:54:30.243Z,2903
2022-08-04T13:55:46.486Z,2551
2022-08-04T13:57:02.717Z,2236
2022-08-04T13:58:18.968Z,2623
2022-08-04T13:59:35.200Z,2992
2022-08-04T14:00:51.440Z,3038
2022-08-04T14:02:07.670Z,3090
2022-08-04T14:03:22.935Z,2998
2022-08-04T14:04:39.177Z,3118
2022-08-04T14:05:55.420Z,2993
2022-08-04T14:07:11.667Z,2706
2022-08-04T14:08:27.907Z,2901
2022-08-04T14:09:44.132Z,2958
2022-08-04T14:11:00.374Z,2846
2022-08-04T14:12:16.617Z,2939
2022-08-04T14:13:32.854Z,2719
2022-08-04T14:14:49.108Z,2860
2022-08-04T14:16:05.341Z,2255
2022-08-04T14:17:21.580Z,2595
2022-08-04T14:18:37.833Z,2784
2022-08-04T14:19:53.083Z,2676
2022-08-04T14:21:09.317Z,2639
2022-08-04T14:22:25.570Z,2562
2022-08-04T14:23:41.806Z,2480
2022-08-04T14:24:58.038Z,2619
2022-08-04T14:26:14.273Z,2814
2022-08-04T14:27:30.513Z,2375
2022-08-04T14:28:46.757Z,2460
2022-08-04T14:30:03.005Z,2604
2022-08-04T14:31:19.255Z,2463
2022-08-04T14:32:35.483Z,2388
2022-08-04T14:33:51.733Z,2698
2022-08-04T14:35:07.975Z,2585
2022-08-04T14:36:23.221Z,3069
2022-08-04T14:37:39.472Z,2593
2022-08-04T14:38:55.705Z,2344
2022-08-04T14:40:11.952Z,1664
2022-08-04T14:41:28.183Z,2647
2022-08-04T14:42:44.431Z,3277
2022-08-04T14:44:00.665Z,2248
2022-08-04T14:45:16.903Z,2587
2022-08-04T14:46:33.156Z,2750
2022-08-04T14:47:49.384Z,2686
2022-08-04T14:49:05.636Z,2684
2022-08-04T14:50:21.878Z,2526
2022-08-04T14:51:38.117Z,2575
2022-08-04T14:52:53.366Z,2876
2022-08-04T14:54:09.614Z,1975
2022-08-04T14:55:25.847Z,2124
2022-08-04T14:56:42.079Z,2064
2022-08-04T14:57:58.330Z,2264
2022-08-04T14:59:14.568Z,2342
2022-08-04T15:00:30.814Z,2402
2022-08-04T15:01:47.047Z,2385
2022-08-04T15:03:03.285Z,2412
2022-08-04T15:04:19.531Z,2345
2022-08-04T15:05:35.765Z,2446
2022-08-04T15:06:52.021Z,2392
2022-08-04T15:08:08.251Z,2456
2022-08-04T15:09:23.506Z,2392
2022-08-04T15:10:39.748Z,2366
2022-08-04T15:11:55.981Z,2365
2022-08-04T15:13:12.236Z,2311
2022-08-04T15:14:28.469Z,2394
2022-08-04T15:15:44.702Z,2318
2022-08-04T15:17:00.943Z,2391
2022-08-04T15:18:17.198Z,2316
2022-08-04T15:20:49.666Z,2266
2022-08-04T15:22:05.914Z,2213
2022-08-04T15:23:22.163Z,2159
2022-08-04T15:24:38.391Z,2170
2022-08-04T15:25:53.657Z,2046
2022-08-04T15:27:09.886Z,2200
2022-08-04T15:28:26.136Z,2105
2022-08-04T15:29:42.366Z,2166
2022-08-04T15:30:58.625Z,2079
2022-08-04T15:32:14.866Z,2172
2022-08-04T15:33:31.086Z,2097
2022-08-04T15:34:47.344Z,1994
2022-08-04T15:36:03.586Z,1972
2022-08-04T15:37:19.823Z,1936
2022-08-04T15:38:36.060Z,1951
2022-08-04T15:39:52.301Z,1941
2022-08-04T15:41:08.545Z,1855
2022-08-04T15:42:23.792Z,1839
2022-08-04T15:43:40.038Z,1845
2022-08-04T15:44:56.271Z,1874
2022-08-04T15:46:12.510Z,1881
2022-08-04T15:47:28.759Z,1837
2022-08-04T15:48:44.020Z,1831
2022-08-04T15:50:00.268Z,1845
2022-08-04T15:51:16.512Z,1825
2022-08-04T15:52:32.739Z,1796
2022-08-04T15:53:48.995Z,1741
2022-08-04T15:55:05.220Z,1784
2022-08-04T15:56:21.456Z,1766
2022-08-04T15:57:37.712Z,1777
2022-08-04T15:58:53.949Z,1736
2022-08-04T16:00:10.179Z,1737
2022-08-04T16:01:26.426Z,1715
2022-08-04T16:02:42.664Z,1764
2022-08-04T16:03:58.917Z,1736
2022-08-04T16:05:14.158Z,1719
2022-08-04T16:06:30.417Z,1695
2022-08-04T16:07:46.658Z,1706
2022-08-04T16:09:02.898Z,1688
2022-08-04T16:10:19.120Z,1650
2022-08-04T16:11:35.365Z,1645
2022-08-04T16:12:51.608Z,1689
2022-08-04T16:14:07.842Z,1666
2022-08-04T16:15:24.084Z,1589
2022-08-04T16:16:40.335Z,1593
2022-08-04T16:17:56.577Z,1601
2022-08-04T16:19:12.818Z,1602
2022-08-04T16:20:29.046Z,1779
2022-08-04T16:21:44.312Z,1455
2022-08-04T16:23:00.553Z,1569
2022-08-04T16:24:16.792Z,1574
2022-08-04T16:25:33.026Z,1584
2022-08-04T16:26:49.278Z,1573
2022-08-04T16:28:05.511Z,1581
2022-08-04T16:29:21.748Z,1587
2022-08-04T16:30:37.999Z,1545
2022-08-04T16:31:54.244Z,1555
2022-08-04T16:33:10.482Z,1527
2022-08-04T16:34:26.710Z,1550
2022-08-04T16:35:42.961Z,1538
2022-08-04T16:36:59.187Z,1526
2022-08-04T16:38:14.458Z,1616
2022-08-04T16:39:30.703Z,1375
2022-08-04T16:40:46.928Z,1447
2022-08-04T16:42:03.171Z,1485
2022-08-04T16:43:19.424Z,1470
2022-08-04T16:44:35.662Z,1466
2022-08-04T16:45:51.907Z,1422
2022-08-04T16:47:08.130Z,1418
2022-08-04T16:48:24.390Z,1407
2022-08-04T16:49:40.611Z,1393
2022-08-04T16:50:56.863Z,1383
2022-08-04T16:52:13.102Z,1385
2022-08-04T16:53:29.333Z,1348
2022-08-04T16:54:44.604Z,1338
2022-08-04T16:56:00.832Z,1345
2022-08-04T16:57:17.085Z,1344
2022-08-04T16:58:33.323Z,1473
2022-08-04T16:59:49.552Z,1050
2022-08-04T17:01:05.792Z,1326
2022-08-04T17:02:22.046Z,1259
2022-08-04T17:03:38.285Z,1241
2022-08-04T17:04:54.528Z,1253
2022-08-04T17:06:10.761Z,1245
2022-08-04T17:07:27.009Z,1225
2022-08-04T17:08:43.246Z,1229
2022-08-04T17:09:59.490Z,1251
2022-08-04T17:11:14.741Z,1151
2022-08-04T17:12:30.985Z,1175
2022-08-04T17:13:47.230Z,1185
2022-08-04T17:15:03.461Z,1169
2022-08-04T17:16:19.698Z,1152
2022-08-04T17:17:35.936Z,1148
2022-08-04T17:18:52.193Z,1153
2022-08-04T17:20:08.430Z,1093
2022-08-04T17:21:24.659Z,1091
2022-08-04T17:22:40.000Z,1175
2022-08-04T17:23:57.136Z,1030
2022-08-04T17:25:13.377Z,844
2022-08-04T17:26:29.626Z,996
2022-08-04T17:27:44.891Z,979
2022-08-04T17:29:01.116Z,1003
2022-08-04T17:30:17.374Z,993